createdAt,value
2022-11-14T00:02:25.751Z,32.22
2022-11-14T00:05:28.167Z,31.60
2022-11-14T00:08:30.876Z,31.80
2022-11-14T00:11:33.551Z,31.27
2022-11-14T00:17:38.658Z,28.77
2022-11-14T00:20:41.426Z,28.42
2022-11-14T00:23:43.903Z,29.27
2022-11-14T00:26:46.449Z,28.20
2022-11-14T00:29:48.856Z,28.90
2022-11-14T00:32:51.333Z,27.42
2022-11-14T00:35:57.437Z,31.92
2022-11-14T00:38:59.928Z,29.48
2022-11-14T00:42:02.324Z,29.50
2022-11-14T00:45:05.243Z,28.80
2022-11-14T00:48:07.656Z,29.90
2022-11-14T00:51:10.893Z,29.38
2022-11-14T00:54:13.346Z,29.83
2022-11-14T01:00:18.729Z,32.03
2022-11-14T01:03:21.445Z,30.08
2022-11-14T01:09:26.435Z,29.20
2022-11-14T01:15:31.274Z,28.90
2022-11-14T01:18:34.620Z,31.73
2022-11-14T01:21:37.791Z,33.45
2022-11-14T01:24:40.320Z,33.72
2022-11-14T01:27:42.768Z,33.55
2022-11-14T01:30:46.383Z,34.92
2022-11-14T01:33:50.671Z,33.97
2022-11-14T01:36:53.145Z,35.45
2022-11-14T01:39:55.579Z,34.38
2022-11-14T01:46:27.972Z,34.13
2022-11-14T01:49:37.379Z,34.65
2022-11-14T01:52:41.110Z,31.23
2022-11-14T01:55:43.956Z,32.53
2022-11-14T01:58:59.136Z,31.17
2022-11-14T02:02:06.654Z,30.35
2022-11-14T02:05:16.105Z,31.73
2022-11-14T02:08:19.254Z,32.33
2022-11-14T02:11:21.779Z,32.53
2022-11-14T02:14:24.451Z,31.83
2022-11-14T02:17:30.202Z,32.53
2022-11-14T02:20:38.254Z,30.67
2022-11-14T02:23:40.729Z,32.78
2022-11-14T02:26:45.693Z,33.88
2022-11-14T02:33:10.480Z,30.30
2022-11-14T02:36:13.232Z,24.00
2022-11-14T02:39:15.716Z,29.63
2022-11-14T02:42:18.219Z,30.40
2022-11-14T02:48:23.495Z,26.58
2022-11-14T02:51:25.979Z,28.58
2022-11-14T02:54:28.430Z,28.27
2022-11-14T02:57:30.882Z,28.17
2022-11-14T03:00:33.633Z,27.65
2022-11-14T03:06:38.339Z,26.87
2022-11-14T03:12:43.203Z,27.17
2022-11-14T03:15:46.119Z,27.25
2022-11-14T03:18:48.954Z,27.80
2022-11-14T03:24:53.990Z,28.13
2022-11-14T03:27:56.496Z,29.60
2022-11-14T03:34:01.208Z,33.07
2022-11-14T03:37:03.687Z,31.25
2022-11-14T03:43:09.117Z,30.65
2022-11-14T03:46:11.552Z,32.88
2022-11-14T03:49:14.022Z,33.10
2022-11-14T03:52:16.512Z,33.42
2022-11-14T03:55:18.972Z,35.60
2022-11-14T03:58:21.415Z,32.78
2022-11-14T04:01:23.912Z,34.53
2022-11-14T04:07:28.722Z,31.33
2022-11-14T04:10:31.520Z,32.80
2022-11-14T04:13:34.075Z,32.95
2022-11-14T04:19:38.887Z,36.13
2022-11-14T04:22:41.604Z,33.40
2022-11-14T04:25:44.934Z,37.95
2022-11-14T04:28:47.511Z,38.30
2022-11-14T04:31:49.981Z,35.92
2022-11-14T04:34:52.443Z,36.40
2022-11-14T04:37:54.876Z,36.92
2022-11-14T04:40:57.269Z,37.05
2022-11-14T04:43:59.742Z,37.03
2022-11-14T04:47:02.404Z,33.97
2022-11-14T04:50:05.551Z,37.50
2022-11-14T04:53:08.137Z,37.30
2022-11-14T04:59:15.802Z,29.67
2022-11-14T05:02:22.147Z,31.48
2022-11-14T05:05:24.556Z,29.83
2022-11-14T05:08:27.279Z,28.20
2022-11-14T05:11:30.049Z,19.75
2022-11-14T05:17:34.850Z,19.30
2022-11-14T05:23:39.975Z,13.35
2022-11-14T05:26:42.384Z,18.88
2022-11-14T05:29:44.868Z,18.83
2022-11-14T05:32:47.484Z,23.58
2022-11-14T05:38:52.171Z,18.27
2022-11-14T05:41:54.561Z,18.17
2022-11-14T05:44:57.126Z,18.35
2022-11-14T05:51:03.953Z,14.87
2022-11-14T05:54:06.491Z,15.40
2022-11-14T05:57:08.894Z,18.70
2022-11-14T06:00:12.045Z,18.05
2022-11-14T06:03:15.271Z,20.48
2022-11-14T06:06:21.008Z,19.83
2022-11-14T06:09:23.727Z,19.42
2022-11-14T06:12:26.153Z,16.10
2022-11-14T06:15:28.713Z,19.05
2022-11-14T06:21:34.175Z,16.15
2022-11-14T06:24:36.668Z,16.98
2022-11-14T06:30:41.682Z,16.93
2022-11-14T06:33:44.264Z,17.73
2022-11-14T06:39:48.957Z,17.60
2022-11-14T06:42:51.419Z,16.75
2022-11-14T06:48:56.877Z,16.17
2022-11-14T06:51:59.299Z,16.27
2022-11-14T06:55:01.734Z,14.70
2022-11-14T06:58:04.237Z,16.63
2022-11-14T07:01:11.233Z,14.00
2022-11-14T07:04:13.847Z,16.73
2022-11-14T07:07:16.307Z,15.95
2022-11-14T07:10:18.885Z,15.77
2022-11-14T07:16:31.965Z,16.10
2022-11-14T07:19:35.477Z,14.55
2022-11-14T07:22:38.005Z,13.77
2022-11-14T07:25:40.973Z,14.85
2022-11-14T07:28:48.090Z,15.00
2022-11-14T07:31:53.455Z,16.15
2022-11-14T07:35:01.893Z,13.68
2022-11-14T07:38:05.035Z,16.17
2022-11-14T07:44:16.853Z,12.32
2022-11-14T07:47:19.322Z,12.80
2022-11-14T07:50:21.805Z,13.30
2022-11-14T07:53:24.600Z,11.90
2022-11-14T07:56:27.157Z,11.13
2022-11-14T08:02:32.005Z,13.33
2022-11-14T08:05:35.346Z,12.00
2022-11-14T08:08:38.221Z,13.55
2022-11-14T08:11:49.593Z,13.35
2022-11-14T08:14:51.999Z,13.32
2022-11-14T08:18:00.964Z,13.40
2022-11-14T08:21:06.730Z,12.40
2022-11-14T08:24:09.238Z,13.57
2022-11-14T08:27:11.627Z,14.43
2022-11-14T08:33:16.699Z,12.45
2022-11-14T08:36:19.344Z,12.10
2022-11-14T08:39:21.896Z,13.27
2022-11-14T08:42:24.417Z,13.25
2022-11-14T08:45:26.991Z,12.93
2022-11-14T08:48:31.038Z,13.43
2022-11-14T08:51:36.164Z,13.02
2022-11-14T08:54:39.075Z,13.88
2022-11-14T08:57:44.187Z,13.13
2022-11-14T09:00:52.141Z,13.75
2022-11-14T09:03:59.643Z,14.15
2022-11-14T09:07:02.491Z,15.82
2022-11-14T09:10:06.392Z,14.30
2022-11-14T09:13:09.249Z,13.93
2022-11-14T09:19:14.099Z,14.03
2022-11-14T09:22:16.741Z,15.32
2022-11-14T09:28:25.146Z,14.48
2022-11-14T09:31:27.604Z,16.63
2022-11-14T09:34:30.042Z,16.10
2022-11-14T09:37:32.559Z,14.93
2022-11-14T09:40:52.702Z,13.73
2022-11-14T09:44:20.936Z,13.38
2022-11-14T09:47:30.539Z,12.15
2022-11-14T09:50:37.365Z,12.32
2022-11-14T09:53:57.917Z,12.30
2022-11-14T09:57:00.661Z,13.32
2022-11-14T10:00:12.289Z,13.23
2022-11-14T10:03:26.451Z,10.13
2022-11-14T10:06:50.234Z,13.20
2022-11-14T10:10:01.315Z,12.30
2022-11-14T10:13:41.093Z,12.00
2022-11-14T10:16:52.266Z,13.80
2022-11-14T10:20:15.103Z,12.82
2022-11-14T10:26:38.570Z,13.20
2022-11-14T10:29:44.189Z,14.70
2022-11-14T10:32:54.111Z,12.98
2022-11-14T10:36:21.293Z,13.20
2022-11-14T10:39:39.229Z,13.55
2022-11-14T10:42:44.518Z,13.68
2022-11-14T10:46:11.951Z,13.20
2022-11-14T10:49:21.472Z,12.57
2022-11-14T10:52:37.116Z,12.90
2022-11-14T10:56:05.592Z,14.10
2022-11-14T10:59:02.008Z,14.45
2022-11-14T11:02:04.752Z,14.77
2022-11-14T11:05:16.294Z,13.60
2022-11-14T11:08:51.458Z,13.15
2022-11-14T11:12:01.683Z,14.20
2022-11-14T11:15:26.636Z,12.38
2022-11-14T11:18:36.901Z,13.48
2022-11-14T11:21:51.227Z,13.02
2022-11-14T11:24:54.452Z,13.13
2022-11-14T11:28:18.353Z,12.40
2022-11-14T11:31:21.001Z,13.10
2022-11-14T11:34:29.458Z,13.82
2022-11-14T11:37:40.512Z,13.30
2022-11-14T11:40:49.201Z,11.57
2022-11-14T11:44:04.721Z,11.25
2022-11-14T11:47:14.245Z,9.75
2022-11-14T11:50:20.760Z,11.73
2022-11-14T11:53:32.214Z,10.77
2022-11-14T11:56:38.044Z,12.70
2022-11-14T11:59:49.322Z,12.05
2022-11-14T12:02:54.127Z,10.70
2022-11-14T12:05:59.470Z,11.95
2022-11-14T12:09:05.267Z,12.18
2022-11-14T12:12:18.937Z,12.32
2022-11-14T12:15:51.760Z,13.15
2022-11-14T12:19:08.957Z,13.38
2022-11-14T12:22:44.346Z,13.15
2022-11-14T12:25:59.143Z,13.18
2022-11-14T12:29:05.387Z,14.90
2022-11-14T12:32:15.599Z,14.95
2022-11-14T12:35:31.978Z,14.98
2022-11-14T12:38:45.694Z,15.90
2022-11-14T12:41:48.299Z,15.27
2022-11-14T12:48:31.630Z,15.40
2022-11-14T12:51:37.006Z,17.60
2022-11-14T12:54:45.001Z,15.88
2022-11-14T12:58:17.781Z,15.23
2022-11-14T13:01:47.229Z,16.05
2022-11-14T13:05:15.217Z,16.63
2022-11-14T13:08:32.618Z,17.52
2022-11-14T13:12:05.797Z,18.50
2022-11-14T13:15:49.302Z,19.30
2022-11-14T13:19:17.642Z,17.02
2022-11-14T13:22:37.320Z,16.98
2022-11-14T13:25:39.906Z,16.05
2022-11-14T13:28:50.894Z,17.08
2022-11-14T13:31:53.453Z,16.73
2022-11-14T13:35:12.061Z,17.73
2022-11-14T13:38:47.508Z,18.52
2022-11-14T13:42:08.615Z,17.95
2022-11-14T13:45:37.390Z,17.02
2022-11-14T13:49:09.300Z,17.75
2022-11-14T13:52:13.301Z,18.48
2022-11-14T13:55:27.815Z,19.25
2022-11-14T13:58:48.467Z,21.10
2022-11-14T14:02:08.905Z,21.38
2022-11-14T14:05:34.855Z,21.33
2022-11-14T14:08:55.393Z,23.92
2022-11-14T14:12:13.117Z,24.40
2022-11-14T14:15:45.892Z,25.35
2022-11-14T14:19:13.243Z,24.95
2022-11-14T14:22:44.556Z,22.48
2022-11-14T14:26:22.298Z,19.98
2022-11-14T14:29:26.356Z,19.98
2022-11-14T14:32:28.963Z,17.15
2022-11-14T14:38:43.002Z,16.40
2022-11-14T14:44:48.913Z,15.30
2022-11-14T14:48:15.690Z,19.20
2022-11-14T14:51:31.096Z,20.80
2022-11-14T14:54:33.585Z,22.33
2022-11-14T15:00:38.807Z,25.67
2022-11-14T15:06:47.601Z,22.77
2022-11-14T15:09:59.700Z,23.33
2022-11-14T15:13:02.283Z,23.52
2022-11-14T15:19:16.919Z,24.38
2022-11-14T15:22:19.435Z,23.13
2022-11-14T15:25:21.954Z,25.27
2022-11-14T15:31:27.279Z,21.27
2022-11-14T15:37:34.115Z,23.30
2022-11-14T15:40:41.106Z,24.00
2022-11-14T15:43:43.562Z,23.35
2022-11-14T15:46:49.892Z,26.35
2022-11-14T15:50:24.562Z,26.52
2022-11-14T15:53:30.430Z,21.13
2022-11-14T15:56:33.022Z,19.52
2022-11-14T15:59:35.505Z,22.65
2022-11-14T16:02:51.158Z,23.30
2022-11-14T16:05:53.579Z,23.10
2022-11-14T16:08:56.032Z,23.85
2022-11-14T16:15:00.936Z,20.63
2022-11-14T16:18:05.298Z,22.00
2022-11-14T16:21:16.262Z,19.80
2022-11-14T16:24:21.308Z,19.00
2022-11-14T16:27:23.900Z,18.02
2022-11-14T16:30:26.914Z,20.50
2022-11-14T16:33:29.711Z,18.90
2022-11-14T16:36:32.796Z,21.92
2022-11-14T16:39:35.576Z,23.35
2022-11-14T16:42:38.124Z,24.25
2022-11-14T16:45:42.316Z,24.52
2022-11-14T16:48:44.862Z,26.35
2022-11-14T16:54:52.939Z,26.15
2022-11-14T17:00:58.690Z,26.73
2022-11-14T17:04:01.711Z,27.58
2022-11-14T17:07:05.550Z,28.00
2022-11-14T17:10:10.283Z,27.02
2022-11-14T17:13:19.187Z,24.58
2022-11-14T17:16:25.101Z,22.80
2022-11-14T17:19:30.116Z,21.02
2022-11-14T17:22:32.618Z,22.13
2022-11-14T17:25:35.570Z,22.25
2022-11-14T17:28:38.924Z,23.08
2022-11-14T17:31:46.729Z,22.13
2022-11-14T17:34:49.583Z,22.00
2022-11-14T17:37:55.020Z,20.30
2022-11-14T17:41:06.132Z,21.65
2022-11-14T17:44:09.989Z,21.70
2022-11-14T17:47:12.821Z,20.75
2022-11-14T17:50:16.245Z,22.10
2022-11-14T17:53:19.856Z,21.30
2022-11-14T17:56:25.334Z,21.63
2022-11-14T17:59:27.889Z,18.60
2022-11-14T18:05:33.586Z,21.02
2022-11-14T18:08:37.455Z,21.98
2022-11-14T18:11:40.515Z,19.90
2022-11-14T18:14:43.248Z,18.83
2022-11-14T18:20:51.720Z,19.20
2022-11-14T18:23:57.437Z,22.60
2022-11-14T18:26:59.916Z,21.88
2022-11-14T18:30:13.818Z,21.77
2022-11-14T18:33:25.403Z,22.50
2022-11-14T18:36:28.542Z,21.02
2022-11-14T18:39:31.585Z,21.60
2022-11-14T18:42:34.740Z,21.45
2022-11-14T18:45:37.510Z,20.83
2022-11-14T18:48:42.197Z,22.40
2022-11-14T18:51:45.294Z,22.15
2022-11-14T18:54:48.180Z,23.73
2022-11-14T18:57:51.216Z,25.25
2022-11-14T19:00:54.337Z,23.73
2022-11-14T19:04:05.736Z,24.90
2022-11-14T19:07:10.408Z,24.15
2022-11-14T19:10:13.941Z,25.50
2022-11-14T19:13:18.224Z,26.95
2022-11-14T19:16:22.031Z,26.13
2022-11-14T19:19:24.855Z,25.83
2022-11-14T19:22:28.807Z,28.30
2022-11-14T19:25:36.781Z,29.70
2022-11-14T19:28:40.855Z,30.50
2022-11-14T19:31:44.548Z,29.73
2022-11-14T19:34:47.451Z,30.38
2022-11-14T19:37:50.311Z,31.67
2022-11-14T19:40:53.212Z,30.95
2022-11-14T19:43:58.219Z,31.67
2022-11-14T19:47:01.043Z,31.58
2022-11-14T19:50:03.987Z,34.15
2022-11-14T19:53:07.013Z,31.30
2022-11-14T19:56:12.105Z,32.30
2022-11-14T19:59:18.972Z,31.75
2022-11-14T20:02:26.362Z,32.15
2022-11-14T20:05:29.185Z,33.38
2022-11-14T20:08:31.720Z,33.42
2022-11-14T20:11:34.673Z,33.83
2022-11-14T20:14:37.533Z,32.15
2022-11-14T20:17:40.659Z,33.35
2022-11-14T20:20:46.719Z,35.85
2022-11-14T20:23:51.531Z,33.15
2022-11-14T20:26:54.318Z,32.63
2022-11-14T20:29:57.385Z,31.35
2022-11-14T20:32:59.869Z,37.80
2022-11-14T20:36:04.976Z,33.35
2022-11-14T20:39:07.903Z,31.95
2022-11-14T20:42:12.250Z,33.97
2022-11-14T20:45:15.859Z,32.70
2022-11-14T20:48:18.686Z,31.92
2022-11-14T20:51:24.551Z,30.45
2022-11-14T20:54:28.445Z,31.67
2022-11-14T20:57:31.688Z,29.38
2022-11-14T21:00:34.882Z,29.52
2022-11-14T21:03:38.355Z,30.88
2022-11-14T21:06:42.346Z,31.25
2022-11-14T21:09:44.908Z,29.70
2022-11-14T21:13:07.249Z,28.52
2022-11-14T21:16:12.314Z,28.90
2022-11-14T21:19:15.192Z,30.30
2022-11-14T21:22:17.653Z,27.02
2022-11-14T21:25:20.131Z,29.08
2022-11-14T21:28:22.816Z,29.20
2022-11-14T21:31:31.823Z,29.38
2022-11-14T21:34:34.410Z,27.25
2022-11-14T21:40:40.363Z,25.83
2022-11-14T21:43:44.283Z,27.23
2022-11-14T21:46:48.861Z,26.60
2022-11-14T21:49:59.895Z,26.88
2022-11-14T21:53:03.768Z,25.42
2022-11-14T21:56:12.324Z,26.02
2022-11-14T21:59:18.612Z,25.98
2022-11-14T22:02:39.498Z,26.90
2022-11-14T22:05:42.016Z,24.90
2022-11-14T22:11:47.367Z,25.92
2022-11-14T22:14:49.737Z,24.92
2022-11-14T22:17:52.151Z,26.75
2022-11-14T22:20:55.690Z,28.63
2022-11-14T22:23:58.198Z,28.25
2022-11-14T22:27:00.712Z,28.05
2022-11-14T22:30:03.366Z,30.00
2022-11-14T22:33:05.939Z,26.73
2022-11-14T22:36:12.448Z,29.48
2022-11-14T22:39:15.629Z,30.20
2022-11-14T22:45:20.439Z,28.13
2022-11-14T22:48:24.497Z,30.60
2022-11-14T22:51:28.228Z,31.13
2022-11-14T22:54:30.836Z,30.05
2022-11-14T22:57:33.296Z,29.88
2022-11-14T23:00:36.703Z,28.50
2022-11-14T23:03:40.741Z,30.25
2022-11-14T23:06:43.544Z,28.90
2022-11-14T23:09:46.186Z,31.05
2022-11-14T23:12:48.900Z,31.83
2022-11-14T23:15:51.794Z,29.95
2022-11-14T23:18:56.512Z,31.00
2022-11-14T23:21:59.293Z,30.15
2022-11-14T23:25:02.012Z,29.42
2022-11-14T23:28:04.813Z,29.05
2022-11-14T23:31:08.548Z,27.23
2022-11-14T23:34:11.344Z,27.00
2022-11-14T23:37:14.044Z,28.05
2022-11-14T23:40:16.924Z,27.38
2022-11-14T23:43:20.174Z,25.55
2022-11-14T23:46:23.087Z,26.17
2022-11-14T23:49:25.833Z,25.58
2022-11-14T23:52:28.632Z,25.40
2022-11-14T23:55:31.263Z,27.50
